»·PEaware :: N5002T KBUR-KOXR

N5002T :: KBUR-KOXR

FLIGHT INFORMATION

Flight Status: Arrived
Operator: Privately registered:
United States
More flights under this callsign
Pilot: Hunter M. (19355)
Aircraft: CESSNA 172 SKYHAWK
(C172)
More flights by this aircraft type
Origin: KBUR Bob Hope-Burbank
United States
Destination: KOXR Oxnard
United States
More flights between these airports :: More routes between these airports
Route: +VNY3 FIM
File this flight plan on PilotEdge
Remarks: tec route burp38
Altitude:
(Current/Filed)
6,000ft
Speed:
(Current/Filed)
118kts
Departed: 26-Mar-19 10:39 AM
Arrived: 26-Mar-19 11:09 AM
Distance/Time
Traveled:
43nm/0:30
Distance/Time
To Go:
Arrived

Flight Plot

Page will automatically refresh every two minutes.

Flight plan parsing failed; only flown route is shown


Map Options




Map Legend


Flown Route
Filed Route
Departure Airport
Arrival Airport
Navaid (VOR, NDB)
Fix

Horizontal Profiles

Position Reports

Time Latitude Longitude Heading Altitude Ground
Speed
26-Mar-19 10:19 34.195938 -118.366901 181 781ft 0kts
26-Mar-19 10:20 34.195937 -118.366901 181 781ft 0kts
26-Mar-19 10:21 34.195936 -118.366901 181 781ft 0kts
26-Mar-19 10:22 34.195935 -118.366901 181 781ft 0kts
26-Mar-19 10:23 34.195934 -118.366901 181 781ft 0kts
26-Mar-19 10:24 34.195933 -118.366901 181 781ft 0kts
26-Mar-19 10:25 34.195932 -118.366901 181 781ft 0kts
26-Mar-19 10:26 34.195931 -118.366901 181 781ft 0kts
26-Mar-19 10:27 34.195930 -118.366901 181 781ft 0kts
26-Mar-19 10:28 34.195929 -118.366901 181 781ft 0kts
26-Mar-19 10:29 34.195928 -118.366901 182 781ft 0kts
26-Mar-19 10:30 34.195927 -118.366901 182 781ft 0kts
26-Mar-19 10:31 34.195926 -118.366902 182 781ft 0kts
26-Mar-19 10:32 34.195925 -118.366902 182 781ft 0kts
26-Mar-19 10:33 34.196247 -118.366273 33 781ft 2kts
26-Mar-19 10:34 34.196735 -118.366970 271 781ft 5kts
26-Mar-19 10:35 34.196973 -118.368954 346 781ft 0kts
26-Mar-19 10:36 34.196974 -118.368955 346 781ft 0kts
26-Mar-19 10:37 34.197918 -118.368528 91 781ft 7kts
26-Mar-19 10:38 34.196006 -118.347288 150 1185ft 82kts
26-Mar-19 10:39 34.178563 -118.364548 223 1925ft 92kts
26-Mar-19 10:40 34.159631 -118.386659 224 2647ft 95kts
26-Mar-19 10:41 34.139791 -118.406634 223 3357ft 89kts
26-Mar-19 10:42 34.134231 -118.431508 270 4020ft 86kts
26-Mar-19 10:43 34.133249 -118.464812 270 4000ft 103kts
26-Mar-19 10:44 34.133852 -118.498995 281 4006ft 101kts
26-Mar-19 10:45 34.138459 -118.532616 282 4003ft 101kts
26-Mar-19 10:46 34.142036 -118.566356 283 4005ft 100kts
26-Mar-19 10:47 34.145642 -118.599822 281 4011ft 101kts
26-Mar-19 10:48 34.150102 -118.633478 281 4001ft 102kts
26-Mar-19 10:49 34.154532 -118.667246 280 4000ft 101kts
26-Mar-19 10:50 34.158889 -118.700839 280 4001ft 101kts
26-Mar-19 10:51 34.163217 -118.734591 280 4001ft 101kts
26-Mar-19 10:52 34.167479 -118.768249 280 4001ft 101kts
26-Mar-19 10:53 34.174910 -118.800846 289 4001ft 101kts
26-Mar-19 10:54 34.183665 -118.833136 289 3999ft 101kts
26-Mar-19 10:55 34.191614 -118.862346 289 3984ft 83kts
26-Mar-19 10:57 34.195680 -118.889423 279 3998ft 82kts
26-Mar-19 10:58 34.194779 -118.917367 266 3916ft 91kts
26-Mar-19 10:59 34.194921 -118.948474 284 3667ft 87kts
26-Mar-19 11:00 34.197526 -118.977551 279 3474ft 91kts
26-Mar-19 11:01 34.199241 -119.006225 273 3115ft 86kts
26-Mar-19 11:02 34.198707 -119.034449 271 2715ft 82kts
26-Mar-19 11:03 34.199649 -119.062663 271 2256ft 85kts
26-Mar-19 11:04 34.200278 -119.092087 266 1844ft 86kts
26-Mar-19 11:05 34.199967 -119.121842 267 1422ft 94kts
26-Mar-19 11:06 34.200685 -119.152366 270 864ft 85kts
26-Mar-19 11:07 34.200510 -119.179307 270 453ft 79kts
26-Mar-19 11:08 34.200793 -119.206556 267 56ft 74kts
26-Mar-19 11:09 34.200682 -119.216765 194 46ft 4kts
26-Mar-19 11:10 34.200212 -119.216773 168 46ft 0kts
26-Mar-19 11:11 34.199465 -119.216280 179 46ft 6kts

Navigation Log

Ident Type
Flight plan parsing failed, navigation log unavailable